Time;durP1;ratioP1;P1;durP2;ratioP2;P2;SDS_P1;SDS_P2;PMS_P1;PMS_P2;Temp;Humidity;BMP_temperature;BMP_pressure;BME280_temperature;BME280_humidity;BME280_pressure;Samples;Min_cycle;Max_cycle;Signal;HPM_P1;HPM_P2
2020/12/19 00:01:48;;;;;;;101.47;32.15;;;;;;;0.71;100.00;98708.84;5000988;28;20041;-83
2020/12/19 00:04:13;;;;;;;96.68;35.00;;;;;;;0.69;100.00;98703.56;4998014;28;20026;-84
2020/12/19 00:06:48;;;;;;;389.83;62.72;;;;;;;0.74;100.00;98722.84;5014385;28;20025;-83
2020/12/19 00:09:14;;;;;;;91.45;28.80;;;;;;;0.71;100.00;98725.47;5014037;28;20025;-84
2020/12/19 00:11:43;;;;;;;125.68;35.05;;;;;;;0.73;100.00;98718.47;4998211;28;20033;-84
2020/12/19 00:14:09;;;;;;;124.35;32.60;;;;;;;0.82;100.00;98722.81;5011725;28;20065;-85
2020/12/19 00:16:34;;;;;;;93.85;28.80;;;;;;;0.81;100.00;98721.94;4998723;28;20033;-83
2020/12/19 00:19:00;;;;;;;114.28;31.23;;;;;;;0.88;100.00;98728.94;5010880;28;20132;-83
2020/12/19 00:21:33;;;;;;;141.85;33.70;;;;;;;0.84;100.00;98716.66;5017805;28;20420;-83
2020/12/19 00:23:59;;;;;;;80.65;29.77;;;;;;;0.93;100.00;98726.25;5018566;28;20103;-82
2020/12/19 00:26:38;;;;;;;96.05;29.23;;;;;;;0.89;100.00;98724.56;5015074;28;20025;-83
2020/12/19 00:29:09;;;;;;;94.50;27.88;;;;;;;0.89;100.00;98725.41;5011479;28;20051;-83
2020/12/19 00:31:35;;;;;;;88.10;27.80;;;;;;;0.84;100.00;98721.91;5027483;28;20027;-83
2020/12/19 00:34:01;;;;;;;183.32;31.90;;;;;;;0.87;100.00;98715.75;5010384;28;20040;-83
2020/12/19 00:36:28;;;;;;;157.35;30.25;;;;;;;0.79;100.00;98713.19;4990911;28;20069;-83
2020/12/19 00:38:53;;;;;;;110.78;27.88;;;;;;;0.82;100.00;98726.34;4998449;28;20026;-84
2020/12/19 00:41:21;;;;;;;326.15;36.22;;;;;;;0.88;100.00;98723.66;4991450;28;20029;-83
2020/12/19 00:43:47;;;;;;;166.90;31.40;;;;;;;0.85;100.00;98704.38;4996282;28;20072;-84
2020/12/19 00:46:13;;;;;;;130.75;30.83;;;;;;;0.96;100.00;98719.22;5014890;28;20029;-80
2020/12/19 00:48:40;;;;;;;139.18;31.48;;;;;;;1.01;100.00;98721.84;4998110;28;20034;-84
2020/12/19 00:51:20;;;;;;;212.10;34.80;;;;;;;1.03;100.00;98718.31;5010883;28;20053;-85
2020/12/19 00:53:47;;;;;;;104.38;29.08;;;;;;;1.08;100.00;98726.19;5011286;28;20405;-85
2020/12/19 00:56:20;;;;;;;124.93;29.00;;;;;;;1.06;100.00;98725.31;5001304;28;20409;-84
2020/12/19 00:58:46;;;;;;;231.10;30.30;;;;;;;1.05;100.00;98715.66;5014593;28;20021;-83
2020/12/19 01:01:13;;;;;;;142.80;32.25;;;;;;;1.07;100.00;98711.28;5014285;28;20460;-85
2020/12/19 01:03:40;;;;;;;257.13;31.63;;;;;;;1.05;100.00;98716.53;4982135;28;20033;-85
2020/12/19 01:06:06;;;;;;;173.75;29.83;;;;;;;1.07;100.00;98706.00;4998447;28;20117;-84
2020/12/19 01:08:32;;;;;;;155.25;33.95;;;;;;;0.95;100.00;98698.19;5009146;28;20528;-84
2020/12/19 01:10:57;;;;;;;120.35;30.00;;;;;;;1.05;100.00;98706.00;5017302;28;20029;-84
2020/12/19 01:13:23;;;;;;;120.22;30.77;;;;;;;1.15;100.00;98693.66;5014967;28;20115;-84
2020/12/19 01:15:49;;;;;;;121.72;28.10;;;;;;;1.18;100.00;98701.53;5017410;28;20037;-84
2020/12/19 01:18:16;;;;;;;184.77;29.92;;;;;;;0.98;100.00;98691.13;5017680;28;20043;-83
2020/12/19 01:20:42;;;;;;;213.88;37.70;;;;;;;1.04;100.00;98690.22;5001754;28;20143;-84
2020/12/19 01:23:08;;;;;;;130.43;32.00;;;;;;;0.94;100.00;98686.78;5017093;28;20124;-83
2020/12/19 01:25:33;;;;;;;173.73;35.05;;;;;;;1.15;100.00;98690.16;5013583;28;20030;-84
2020/12/19 01:27:59;;;;;;;166.38;33.72;;;;;;;1.20;100.00;98696.28;5005769;28;20405;-83
2020/12/19 01:30:24;;;;;;;185.85;33.70;;;;;;;1.23;100.00;98694.47;4990089;28;20069;-83
2020/12/19 01:32:50;;;;;;;118.45;30.80;;;;;;;1.11;100.00;98670.84;4992715;28;20483;-83
2020/12/19 01:35:17;;;;;;;120.00;32.38;;;;;;;1.16;100.00;98668.19;5013347;28;20036;-84
2020/12/19 01:37:43;;;;;;;121.07;31.58;;;;;;;1.20;100.00;98678.69;5001326;28;20036;-85
2020/12/19 01:40:09;;;;;;;112.72;28.35;;;;;;;1.11;100.00;98673.47;5000955;28;20033;-83
2020/12/19 01:42:36;;;;;;;129.27;29.42;;;;;;;1.11;100.00;98664.72;5008946;28;20119;-83
2020/12/19 01:45:02;;;;;;;133.25;27.63;;;;;;;1.07;100.00;98669.13;5002787;28;20117;-83
2020/12/19 01:47:28;;;;;;;93.78;26.70;;;;;;;1.12;100.00;98669.09;4986779;28;20036;-84
2020/12/19 01:49:53;;;;;;;87.80;24.75;;;;;;;1.17;100.00;98678.69;5016955;28;20369;-84
2020/12/19 01:52:22;;;;;;;117.45;28.33;;;;;;;1.08;100.00;98674.38;5008438;28;20033;-83
2020/12/19 01:54:48;;;;;;;156.68;27.98;;;;;;;1.04;100.00;98663.88;4999921;28;20144;-83
2020/12/19 01:57:17;;;;;;;94.63;25.25;;;;;;;0.97;100.00;98660.41;4996569;28;20017;-83
2020/12/19 01:59:43;;;;;;;121.53;28.48;;;;;;;0.86;100.00;98666.63;5016414;28;20040;-83
2020/12/19 02:02:10;;;;;;;190.70;31.88;;;;;;;0.84;100.00;98665.75;5001839;28;20113;-83
2020/12/19 02:04:36;;;;;;;242.80;32.55;;;;;;;0.89;100.00;98672.72;5004266;28;20028;-82
2020/12/19 02:07:04;;;;;;;132.43;29.40;;;;;;;0.91;100.00;98663.09;5006579;28;20026;-82
2020/12/19 02:09:34;;;;;;;134.95;31.13;;;;;;;0.91;100.00;98670.09;5021172;28;20036;-83
2020/12/19 02:12:00;;;;;;;121.50;28.10;;;;;;;0.95;100.00;98671.84;5001923;28;20025;-83
2020/12/19 02:14:28;;;;;;;143.77;29.00;;;;;;;0.94;100.00;98665.69;4999559;28;20084;-85
2020/12/19 02:17:01;;;;;;;180.48;31.40;;;;;;;1.00;100.00;98677.94;5007907;28;20025;-81
2020/12/19 02:19:28;;;;;;;253.38;36.47;;;;;;;1.03;100.00;98670.03;5012694;28;20041;-84
2020/12/19 02:21:54;;;;;;;128.93;31.13;;;;;;;1.03;100.00;98670.03;5000498;28;20459;-84
2020/12/19 02:24:20;;;;;;;167.50;35.65;;;;;;;1.09;100.00;98668.22;5000310;28;20088;-84
2020/12/19 02:26:51;;;;;;;98.10;27.90;;;;;;;1.04;100.00;98672.66;4996574;28;20030;-84
2020/12/19 02:29:17;;;;;;;114.88;29.95;;;;;;;1.03;100.00;98670.03;4995175;28;20026;-83
2020/12/19 02:31:43;;;;;;;107.60;31.15;;;;;;;0.98;100.00;98669.19;4995955;28;20420;-84
2020/12/19 02:34:09;;;;;;;167.05;35.92;;;;;;;0.92;100.00;98671.88;5005061;28;20072;-84
2020/12/19 02:36:37;;;;;;;108.25;30.55;;;;;;;0.94;100.00;98654.28;4997090;28;20064;-84
2020/12/19 02:39:02;;;;;;;94.97;27.83;;;;;;;0.94;100.00;98664.81;5002310;28;20029;-84
2020/12/19 02:41:28;;;;;;;258.55;35.00;;;;;;;0.88;100.00;98660.47;4996092;28;20064;-83
2020/12/19 02:43:55;;;;;;;193.80;32.47;;;;;;;0.99;100.00;98663.03;5011230;28;20054;-82
2020/12/19 02:46:21;;;;;;;187.50;32.17;;;;;;;0.98;100.00;98662.16;4996377;28;20042;-83
2020/12/19 02:48:47;;;;;;;184.57;31.63;;;;;;;0.99;100.00;98653.38;4998346;28;20387;-83
2020/12/19 02:51:13;;;;;;;147.35;26.70;;;;;;;0.99;100.00;98668.28;5007888;28;20029;-84
2020/12/19 02:53:38;;;;;;;87.45;23.05;;;;;;;0.92;100.00;98671.88;5019878;28;20044;-83
2020/12/19 02:56:04;;;;;;;122.45;25.75;;;;;;;0.78;100.00;98663.16;4995508;28;20034;-84
2020/12/19 02:58:30;;;;;;;101.88;24.45;;;;;;;0.69;100.00;98653.53;5004315;28;20044;-84
2020/12/19 03:00:55;;;;;;;122.82;29.50;;;;;;;0.83;100.00;98667.50;4995620;28;20034;-84
2020/12/19 03:03:21;;;;;;;125.45;24.02;;;;;;;0.86;100.00;98671.91;4982974;28;20037;-84
2020/12/19 03:05:47;;;;;;;142.68;27.05;;;;;;;0.90;100.00;98679.75;5014990;28;20425;-83
2020/12/19 03:08:12;;;;;;;132.80;25.70;;;;;;;0.76;100.00;98665.81;5015270;28;20026;-84
2020/12/19 03:10:38;;;;;;;157.43;24.33;;;;;;;0.71;100.00;98669.34;5006618;28;20116;-85
2020/12/19 03:13:04;;;;;;;111.65;23.50;;;;;;;0.75;100.00;98673.69;5006936;28;20079;-84
2020/12/19 03:15:29;;;;;;;108.63;21.17;;;;;;;0.68;100.00;98678.09;5011673;28;20037;-84
2020/12/19 03:17:55;;;;;;;103.50;23.20;;;;;;;0.68;100.00;98687.78;5003438;28;20053;-84
2020/12/19 03:20:21;;;;;;;122.97;21.52;;;;;;;0.60;100.00;98673.78;4995450;28;20485;-84
2020/12/19 03:22:46;;;;;;;161.50;25.45;;;;;;;0.61;100.00;98675.53;5012083;28;20115;-84
2020/12/19 03:25:12;;;;;;;64.15;22.73;;;;;;;0.46;100.00;98672.06;5009548;28;20117;-84
2020/12/19 03:27:37;;;;;;;103.00;23.75;;;;;;;0.39;100.00;98680.88;5011510;28;20508;-84
2020/12/19 03:30:04;;;;;;;119.78;21.02;;;;;;;0.25;100.00;98679.16;5004356;28;20049;-83
2020/12/19 03:32:30;;;;;;;89.00;21.15;;;;;;;0.05;100.00;98667.84;5011155;28;20103;-83
2020/12/19 03:34:55;;;;;;;76.75;23.40;;;;;;;0.13;100.00;98679.19;5011580;28;20041;-84
2020/12/19 03:37:21;;;;;;;87.78;22.27;;;;;;;0.09;100.00;98681.00;5003671;28;20391;-84
2020/12/19 03:39:47;;;;;;;69.88;21.38;;;;;;;0.24;100.00;98685.31;5012987;28;20037;-85
2020/12/19 03:42:12;;;;;;;122.57;23.67;;;;;;;0.23;100.00;98676.53;4995186;28;20056;-83
2020/12/19 03:44:38;;;;;;;77.65;24.35;;;;;;;0.26;100.00;98686.19;4995092;28;20643;-83
2020/12/19 03:47:04;;;;;;;117.25;27.05;;;;;;;0.37;100.00;98687.03;4997876;28;20033;-82
2020/12/19 03:49:29;;;;;;;136.85;26.60;;;;;;;0.31;100.00;98687.91;5011101;28;20037;-82
2020/12/19 03:51:55;;;;;;;78.88;18.08;;;;;;;0.32;100.00;98694.94;5002813;28;20034;-83
2020/12/19 03:54:21;;;;;;;128.02;20.13;;;;;;;0.10;100.00;98674.81;5008041;28;20026;-83
2020/12/19 03:56:46;;;;;;;110.63;21.02;;;;;;;0.04;100.00;98682.72;5013396;28;20048;-84
2020/12/19 03:59:12;;;;;;;266.60;25.23;;;;;;;0.13;100.00;98687.09;5002898;28;20022;-83
2020/12/19 04:01:38;;;;;;;245.10;26.85;;;;;;;0.23;100.00;98696.72;4986704;28;20059;-83
2020/12/19 04:04:04;;;;;;;105.45;22.65;;;;;;;0.35;100.00;98696.66;4997303;28;20127;-83
2020/12/19 04:06:30;;;;;;;107.80;20.10;;;;;;;0.38;100.00;98708.06;4994559;28;20069;-84
2020/12/19 04:08:56;;;;;;;164.35;21.35;;;;;;;0.42;100.00;98701.03;4996450;28;20115;-84
2020/12/19 04:11:22;;;;;;;106.32;19.98;;;;;;;0.35;100.00;98699.31;4994584;28;20033;-83
2020/12/19 04:13:48;;;;;;;108.38;20.55;;;;;;;0.47;100.00;98707.16;4991662;28;20033;-83
2020/12/19 04:16:14;;;;;;;194.52;22.23;;;;;;;0.35;100.00;98705.44;5003880;28;20076;-84
2020/12/19 04:18:39;;;;;;;115.68;19.17;;;;;;;0.38;100.00;98708.06;4994088;28;20178;-83
2020/12/19 04:21:06;;;;;;;142.23;20.38;;;;;;;0.35;100.00;98704.56;4997688;28;20036;-83
2020/12/19 04:23:32;;;;;;;176.13;21.05;;;;;;;0.31;100.00;98703.69;4997525;28;20034;-83
2020/12/19 04:25:59;;;;;;;141.48;20.48;;;;;;;0.41;100.00;98704.53;4997515;28;20026;-84
2020/12/19 04:28:25;;;;;;;96.55;19.25;;;;;;;0.52;100.00;98708.03;5010792;28;20026;-83
2020/12/19 04:30:50;;;;;;;183.57;22.67;;;;;;;0.54;100.00;98706.25;5003785;28;20100;-84
2020/12/19 04:33:16;;;;;;;153.70;21.45;;;;;;;0.52;100.00;98701.00;4994758;28;20072;-83
2020/12/19 04:35:42;;;;;;;77.65;23.08;;;;;;;0.60;100.00;98708.00;5002361;28;20034;-84
2020/12/19 04:38:08;;;;;;;117.22;22.88;;;;;;;0.70;100.00;98717.59;5002938;28;20124;-84
2020/12/19 04:40:33;;;;;;;76.63;23.67;;;;;;;0.72;100.00;98719.34;5009209;28;20038;-84
2020/12/19 04:42:59;;;;;;;139.80;28.42;;;;;;;0.64;100.00;98715.00;4995180;28;20057;-83
2020/12/19 04:45:25;;;;;;;163.27;32.20;;;;;;;0.68;100.00;98716.75;5008224;28;20033;-83
2020/12/19 04:47:51;;;;;;;90.35;28.30;;;;;;;0.67;100.00;98721.13;5005434;28;20481;-84
2020/12/19 04:50:17;;;;;;;110.47;30.90;;;;;;;0.66;100.00;98715.84;5002881;28;20060;-83
2020/12/19 04:52:42;;;;;;;91.80;23.10;;;;;;;0.57;100.00;98713.25;5002526;28;20030;-84
2020/12/19 04:55:09;;;;;;;49.60;19.63;;;;;;;0.42;100.00;98709.81;4993990;28;20025;-84
2020/12/19 04:57:34;;;;;;;90.32;22.55;;;;;;;0.33;100.00;98707.22;5000623;28;20083;-84
2020/12/19 05:00:00;;;;;;;93.60;31.45;;;;;;;0.36;100.00;98712.47;5009995;28;20026;-84
2020/12/19 05:02:26;;;;;;;195.50;38.25;;;;;;;0.45;100.00;98722.09;4994719;28;20453;-84
2020/12/19 05:04:51;;;;;;;159.73;49.58;;;;;;;0.46;100.00;98723.84;5007443;28;20025;-82
2020/12/19 05:07:17;;;;;;;60.38;22.15;;;;;;;0.45;100.00;98730.88;5016989;28;20029;-84
2020/12/19 05:09:44;;;;;;;86.82;32.22;;;;;;;0.40;100.00;98724.72;5017437;28;20548;-84
2020/12/19 05:12:11;;;;;;;175.73;26.58;;;;;;;0.32;100.00;98717.72;4999816;28;20033;-85
2020/12/19 05:14:38;;;;;;;109.00;22.08;;;;;;;0.26;100.00;98723.88;5011226;28;20554;-84
2020/12/19 05:17:04;;;;;;;123.30;24.40;;;;;;;0.07;100.00;98726.56;5008004;28;20107;-86
2020/12/19 05:19:30;;;;;;;91.72;22.92;;;;;;;0.22;100.00;98744.94;4998262;28;20068;-86
2020/12/19 05:21:56;;;;;;;132.20;38.13;;;;;;;0.13;100.00;98732.69;4997831;28;20025;-85
2020/12/19 05:24:36;;;;;;;301.27;106.70;;;;;;;0.09;100.00;98733.59;5010070;28;20037;-86
2020/12/19 05:27:04;;;;;;;129.75;28.83;;;;;;;0.03;100.00;98738.84;5026192;28;20025;-84
2020/12/19 05:29:31;;;;;;;83.93;23.45;;;;;;;0.09;100.00;98743.22;5017564;28;20059;-84
2020/12/19 05:31:59;;;;;;;95.72;33.97;;;;;;;0.00;100.00;98730.97;5016430;28;20405;-85
2020/12/19 05:34:26;;;;;;;144.93;42.63;;;;;;;0.03;100.00;98738.84;5001188;28;20045;-84
2020/12/19 05:36:53;;;;;;;97.55;30.88;;;;;;;-0.05;100.00;98740.59;5008949;28;20108;-84
2020/12/19 05:39:19;;;;;;;193.27;30.35;;;;;;;-0.10;100.00;98742.38;5013081;28;20026;-82
2020/12/19 05:41:46;;;;;;;178.32;33.58;;;;;;;0.01;100.00;98743.22;5011453;28;20405;-84
2020/12/19 05:44:12;;;;;;;124.13;34.35;;;;;;;0.08;100.00;98752.88;5007424;28;20056;-85
2020/12/19 05:46:41;;;;;;;172.90;61.72;;;;;;;0.00;100.00;98733.59;5006042;28;20025;-84
2020/12/19 05:49:11;;;;;;;196.55;62.15;;;;;;;-0.01;100.00;98739.72;5014899;28;20029;-84
2020/12/19 05:51:39;;;;;;;100.38;33.17;;;;;;;0.16;100.00;98758.09;5013673;28;20044;-83
2020/12/19 05:54:05;;;;;;;81.55;24.08;;;;;;;0.22;100.00;98763.34;5006339;28;20030;-83
2020/12/19 05:56:59;;;;;;;115.60;33.83;;;;;;;0.16;100.00;98752.84;4996593;28;20073;-83
2020/12/19 05:59:27;;;;;;;96.95;27.80;;;;;;;0.28;100.00;98766.84;5014009;28;20063;-84
2020/12/19 06:01:53;;;;;;;104.82;33.88;;;;;;;0.17;100.00;98757.22;4992519;28;20029;-84
2020/12/19 06:04:19;;;;;;;97.15;32.63;;;;;;;0.27;100.00;98759.84;5013151;28;20099;-84
2020/12/19 06:06:47;;;;;;;60.80;22.20;;;;;;;0.22;100.00;98764.22;5003817;28;20053;-83
2020/12/19 06:09:14;;;;;;;66.63;21.20;;;;;;;0.17;100.00;98768.63;5015091;28;20056;-82
2020/12/19 06:11:51;;;;;;;148.10;31.73;;;;;;;0.25;100.00;98769.47;4994320;28;20103;-82
2020/12/19 06:14:22;;;;;;;91.45;25.08;;;;;;;0.28;100.00;98772.09;5016407;28;20568;-84
2020/12/19 06:16:50;;;;;;;103.57;27.83;;;;;;;0.45;100.00;98780.88;4990939;28;20087;-83
2020/12/19 06:19:20;;;;;;;309.77;104.22;;;;;;;0.54;100.00;98764.16;4989021;28;20021;-83
2020/12/19 06:21:55;;;;;;;362.98;139.57;;;;;;;0.67;100.00;98784.31;5010206;28;20033;-83
2020/12/19 06:24:47;;;;;;;148.88;46.38;;;;;;;0.61;100.00;98776.44;5012925;28;20061;-82
2020/12/19 06:27:25;;;;;;;116.78;39.13;;;;;;;0.70;100.00;98775.53;4994737;28;20034;-82
2020/12/19 06:29:51;;;;;;;124.85;47.83;;;;;;;0.76;100.00;98778.13;5011216;28;20029;-81
2020/12/19 06:32:27;;;;;;;113.45;35.17;;;;;;;0.79;100.00;98783.41;5013572;28;20051;-84
2020/12/19 06:35:04;;;;;;;121.63;36.50;;;;;;;0.73;100.00;98772.88;5010980;28;20035;-82
2020/12/19 06:37:32;;;;;;;102.30;23.48;;;;;;;0.84;100.00;98784.25;4995907;28;20092;-82
2020/12/19 06:40:16;;;;;;;118.28;25.30;;;;;;;0.85;100.00;98788.63;5003446;28;20481;-83
2020/12/19 06:42:44;;;;;;;78.47;24.95;;;;;;;0.90;100.00;98784.22;5006201;28;20054;-83
2020/12/19 06:45:29;;;;;;;141.57;38.20;;;;;;;0.97;100.00;98786.84;5011880;28;20036;-84
2020/12/19 06:47:58;;;;;;;81.05;27.75;;;;;;;0.97;100.00;98780.69;4987931;28;20372;-83
2020/12/19 06:50:25;;;;;;;71.38;24.85;;;;;;;1.13;100.00;98777.09;5010295;28;20391;-83
2020/12/19 06:52:59;;;;;;;79.55;23.55;;;;;;;1.26;100.00;98786.69;4997829;28;20516;-83
2020/12/19 06:55:26;;;;;;;64.03;24.95;;;;;;;1.21;100.00;98784.97;5002818;28;20453;-86
2020/12/19 06:57:54;;;;;;;94.53;31.23;;;;;;;1.27;100.00;98783.16;4993086;28;20060;-84
2020/12/19 07:00:30;;;;;;;112.57;30.15;;;;;;;1.44;100.00;98789.25;5009428;28;20125;-84
2020/12/19 07:02:56;;;;;;;136.70;34.05;;;;;;;1.61;100.00;98787.34;4989503;28;20048;-83
2020/12/19 07:05:24;;;;;;;91.43;31.70;;;;;;;1.69;99.29;98789.06;4992075;28;20030;-84
2020/12/19 07:07:50;;;;;;;81.57;29.27;;;;;;;1.68;98.59;98789.94;4976388;28;20499;-84
2020/12/19 07:10:35;;;;;;;86.22;33.65;;;;;;;1.67;98.66;98785.56;5008012;28;20021;-84
2020/12/19 07:13:01;;;;;;;78.85;29.67;;;;;;;1.76;99.19;98791.66;5007439;28;20500;-85
2020/12/19 07:15:45;;;;;;;71.13;31.05;;;;;;;1.80;99.27;98793.38;5011586;28;20029;-84
2020/12/19 07:18:26;;;;;;;84.80;35.35;;;;;;;1.72;99.75;98778.50;5009144;28;20457;-84
2020/12/19 07:21:02;;;;;;;70.13;29.00;;;;;;;1.87;99.69;98783.66;5008784;28;20034;-82
2020/12/19 07:23:28;;;;;;;81.40;30.85;;;;;;;1.82;99.46;98793.34;4993594;28;20026;-80
2020/12/19 07:25:54;;;;;;;93.30;35.92;;;;;;;1.54;99.78;98783.00;4982930;28;20057;-81
2020/12/19 07:28:19;;;;;;;86.88;32.97;;;;;;;1.47;100.00;98781.31;5015272;28;20466;-83
2020/12/19 07:30:45;;;;;;;112.82;39.75;;;;;;;1.50;100.00;98783.94;4989176;28;20040;-82
2020/12/19 07:33:11;;;;;;;91.07;37.38;;;;;;;1.74;100.00;98785.50;4988782;28;20382;-82
2020/12/19 07:35:37;;;;;;;82.38;30.95;;;;;;;1.95;99.18;98781.84;4992284;28;20473;-80
2020/12/19 07:38:04;;;;;;;74.40;30.70;;;;;;;2.22;98.59;98780.72;5009740;28;20391;-84
2020/12/19 07:40:30;;;;;;;72.28;32.20;;;;;;;2.31;98.13;98770.94;4991692;28;20505;-85
2020/12/19 07:43:04;;;;;;;89.43;39.55;;;;;;;2.32;97.77;98764.78;4972342;28;20116;-82
2020/12/19 07:45:30;;;;;;;91.70;32.08;;;;;;;2.53;96.59;98767.19;4992238;28;20533;-87
2020/12/19 07:47:56;;;;;;;82.85;32.20;;;;;;;2.58;96.05;98778.63;4995038;28;20021;-85
2020/12/19 07:50:29;;;;;;;89.57;34.40;;;;;;;2.73;94.66;98780.22;4993406;28;20061;-84
2020/12/19 07:53:06;;;;;;;79.55;33.60;;;;;;;2.86;94.65;98783.59;5002754;28;20084;-86
2020/12/19 07:55:33;;;;;;;77.78;31.33;;;;;;;2.90;94.79;98780.00;4993198;28;20041;-84
2020/12/19 07:58:02;;;;;;;79.65;31.70;;;;;;;2.73;95.40;98774.94;4995270;28;20490;-85
2020/12/19 08:00:28;;;;;;;82.95;32.85;;;;;;;2.84;95.81;98780.94;4990029;28;20045;-79
2020/12/19 08:02:54;;;;;;;83.63;33.65;;;;;;;2.96;95.13;98778.16;4993962;28;20405;-78
2020/12/19 08:05:20;;;;;;;77.35;32.88;;;;;;;3.13;94.83;98775.31;4990986;28;20057;-77
2020/12/19 08:07:51;;;;;;;65.30;27.73;;;;;;;3.37;92.65;98780.28;4975027;28;20413;-79
2020/12/19 08:10:17;;;;;;;70.47;30.13;;;;;;;3.42;91.54;98778.44;4974946;28;20018;-80
2020/12/19 08:12:43;;;;;;;64.25;25.83;;;;;;;3.32;91.05;98776.84;4990126;28;20473;-80
2020/12/19 08:15:24;;;;;;;73.13;30.40;;;;;;;2.90;93.59;98778.22;4990890;28;20675;-79
2020/12/19 08:18:02;;;;;;;57.63;24.25;;;;;;;2.81;94.76;98777.47;4984652;28;20025;-78
2020/12/19 08:20:30;;;;;;;93.05;39.20;;;;;;;2.80;94.18;98771.28;4993895;28;20425;-84
2020/12/19 08:22:56;;;;;;;65.40;25.27;;;;;;;2.76;94.81;98772.25;4977645;28;20621;-85
2020/12/19 08:25:22;;;;;;;87.72;32.25;;;;;;;2.59;95.59;98768.91;4978745;28;20117;-84
2020/12/19 08:27:49;;;;;;;79.10;33.25;;;;;;;2.68;95.60;98768.78;4962562;28;20119;-86
2020/12/19 08:30:27;;;;;;;83.63;32.88;;;;;;;2.87;95.91;98772.97;4992272;28;20031;-83
2020/12/19 08:32:59;;;;;;;88.88;36.95;;;;;;;3.10;95.13;98776.25;4993242;28;20473;-83
2020/12/19 08:35:28;;;;;;;88.32;34.55;;;;;;;3.22;94.20;98767.28;4990773;28;20034;-85
2020/12/19 08:38:05;;;;;;;87.35;38.83;;;;;;;3.39;91.95;98770.53;4991160;28;20122;-86
2020/12/19 08:40:39;;;;;;;101.30;40.58;;;;;;;3.36;91.94;98761.78;4977364;28;20109;-86
2020/12/19 08:43:06;;;;;;;100.47;39.20;;;;;;;3.35;92.04;98762.69;4990503;28;20133;-83
2020/12/19 08:45:36;;;;;;;97.65;42.45;;;;;;;3.29;91.65;98756.56;4981040;28;20120;-83
2020/12/19 08:48:07;;;;;;;121.93;50.05;;;;;;;3.24;91.28;98737.25;4996599;28;20026;-82
2020/12/19 08:50:37;;;;;;;120.70;44.67;;;;;;;3.54;90.95;98746.53;4976611;28;20418;-83
2020/12/19 08:53:16;;;;;;;118.22;45.63;;;;;;;3.54;91.13;98749.16;4992102;28;20038;-83
2020/12/19 08:55:41;;;;;;;109.18;39.22;;;;;;;3.22;92.05;98744.34;4979825;28;20026;-84
2020/12/19 08:58:08;;;;;;;92.35;36.15;;;;;;;3.08;94.62;98743.66;4992106;28;20401;-85
2020/12/19 09:00:36;;;;;;;105.05;34.08;;;;;;;2.94;94.88;98736.81;4987472;28;20346;-84
2020/12/19 09:03:08;;;;;;;90.65;33.33;;;;;;;3.17;95.74;98727.66;4979823;28;20413;-83
2020/12/19 09:05:36;;;;;;;77.80;30.70;;;;;;;3.27;93.83;98737.22;4988348;28;20030;-82
2020/12/19 09:08:02;;;;;;;88.95;31.25;;;;;;;3.30;93.59;98731.00;4988473;28;20034;-83
2020/12/19 09:10:30;;;;;;;79.60;31.17;;;;;;;3.09;95.08;98734.84;4996719;28;20049;-82
2020/12/19 09:13:19;;;;;;;75.80;28.98;;;;;;;3.00;95.94;98736.72;4997679;28;20076;-82
2020/12/19 09:15:45;;;;;;;68.60;26.23;;;;;;;3.25;94.47;98722.28;4994724;28;20025;-82
2020/12/19 09:18:12;;;;;;;91.97;32.05;;;;;;;3.26;93.75;98713.47;4990793;28;20157;-82
2020/12/19 09:20:38;;;;;;;81.50;32.50;;;;;;;3.22;94.87;98717.03;4992729;28;20062;-83
2020/12/19 09:23:04;;;;;;;114.18;33.25;;;;;;;2.97;95.17;98712.97;4993221;28;20525;-82
2020/12/19 09:25:31;;;;;;;108.57;37.15;;;;;;;3.03;95.72;98710.25;4977863;28;20030;-83
2020/12/19 09:27:57;;;;;;;140.75;37.53;;;;;;;3.25;94.86;98704.66;5001517;28;20145;-82
2020/12/19 09:30:22;;;;;;;145.02;36.15;;;;;;;3.29;94.65;98714.28;4990073;28;20110;-82
2020/12/19 09:32:48;;;;;;;155.88;36.72;;;;;;;3.12;94.10;98712.75;5009235;28;20025;-83
2020/12/19 09:35:13;;;;;;;168.45;36.33;;;;;;;3.10;94.75;98707.53;4991672;28;20026;-82
2020/12/19 09:37:39;;;;;;;93.88;33.28;;;;;;;3.15;95.61;98704.78;4979728;28;20121;-83
2020/12/19 09:40:05;;;;;;;120.93;37.35;;;;;;;3.17;95.23;98692.41;4988252;28;20026;-83
2020/12/19 09:42:30;;;;;;;274.48;41.35;;;;;;;3.20;94.49;98703.81;4992608;28;20066;-84
2020/12/19 09:44:56;;;;;;;125.60;41.33;;;;;;;3.28;94.06;98693.16;5013392;28;20136;-83
2020/12/19 09:47:22;;;;;;;100.72;36.13;;;;;;;3.23;94.06;98687.91;4992686;28;20469;-83
2020/12/19 09:49:47;;;;;;;139.90;41.78;;;;;;;3.46;93.56;98695.53;5015375;28;20025;-83
2020/12/19 09:52:13;;;;;;;124.05;47.40;;;;;;;3.61;93.18;98682.06;4996136;28;20026;-82
2020/12/19 09:54:39;;;;;;;104.70;38.95;;;;;;;3.90;92.50;98683.34;4996224;28;20112;-82
2020/12/19 09:57:04;;;;;;;82.10;32.85;;;;;;;3.89;91.63;98668.34;5013348;28;20038;-85
2020/12/19 09:59:30;;;;;;;101.25;36.75;;;;;;;3.87;92.18;98670.16;4999532;28;20512;-87
2020/12/19 10:01:55;;;;;;;100.00;33.05;;;;;;;3.84;92.12;98686.97;5014539;28;20033;-89
2020/12/19 10:04:21;;;;;;;98.25;35.75;;;;;;;3.58;92.78;98674.16;5019430;28;20188;-88
2020/12/19 10:06:50;;;;;;;91.00;34.55;;;;;;;3.77;93.03;98664.16;5020915;28;20043;-89
2020/12/19 10:09:16;;;;;;;91.32;34.15;;;;;;;4.00;90.81;98661.13;4990989;28;20040;-90
2020/12/19 10:11:41;;;;;;;111.78;43.72;;;;;;;3.96;91.53;98655.00;5010866;28;20030;-87
2020/12/19 10:14:07;;;;;;;163.10;56.53;;;;;;;4.04;90.31;98654.84;5017803;28;20040;-83
2020/12/19 10:16:33;;;;;;;183.57;49.95;;;;;;;3.89;91.59;98648.06;5000555;28;20436;-84
2020/12/19 10:18:58;;;;;;;187.07;54.10;;;;;;;4.03;91.62;98639.88;5000216;28;20032;-84
2020/12/19 10:21:24;;;;;;;153.13;50.20;;;;;;;4.22;90.31;98647.44;5015700;28;20033;-85
2020/12/19 10:23:49;;;;;;;248.75;94.80;;;;;;;4.21;90.13;98642.19;4998983;28;20029;-85
2020/12/19 10:26:15;;;;;;;138.07;48.13;;;;;;;4.44;89.58;98636.41;5004537;28;20022;-85
2020/12/19 10:28:41;;;;;;;145.48;50.78;;;;;;;4.53;88.15;98625.63;5008038;28;20099;-84
2020/12/19 10:31:10;;;;;;;191.35;59.20;;;;;;;4.38;88.75;98632.13;5000045;28;20450;-84
2020/12/19 10:33:35;;;;;;;222.65;77.35;;;;;;;3.90;91.67;98622.47;5001277;28;20544;-83
2020/12/19 10:36:01;;;;;;;200.48;64.35;;;;;;;4.03;92.04;98629.31;5012741;28;20057;-85
2020/12/19 10:38:27;;;;;;;217.60;70.18;;;;;;;4.25;91.18;98628.84;5006308;28;20040;-85
2020/12/19 10:40:52;;;;;;;221.07;75.88;;;;;;;4.37;90.83;98627.72;5012660;28;20112;-84
2020/12/19 10:43:18;;;;;;;206.52;71.53;;;;;;;4.54;90.99;98638.88;5003448;28;20047;-84
2020/12/19 10:45:45;;;;;;;218.50;74.53;;;;;;;4.45;91.41;98639.06;4987889;28;20041;-83
2020/12/19 10:48:11;;;;;;;229.55;79.82;;;;;;;4.49;91.41;98635.41;4994770;28;20053;-79
2020/12/19 10:50:37;;;;;;;205.32;70.88;;;;;;;4.64;90.17;98635.13;4998183;28;20477;-85
2020/12/19 10:53:02;;;;;;;204.25;69.57;;;;;;;4.80;88.63;98625.91;4967902;28;20034;-85
2020/12/19 10:55:28;;;;;;;199.25;71.85;;;;;;;4.83;89.00;98619.69;4981779;28;20350;-84
2020/12/19 10:57:54;;;;;;;208.07;72.28;;;;;;;4.97;89.53;98622.03;4995348;28;20103;-83
2020/12/19 11:00:19;;;;;;;338.20;142.00;;;;;;;5.01;90.71;98618.41;4967644;28;20037;-83
2020/12/19 11:02:45;;;;;;;246.90;84.95;;;;;;;5.16;87.62;98628.66;4977380;28;20478;-84
2020/12/19 11:05:11;;;;;;;227.98;83.65;;;;;;;5.16;88.71;98631.31;4984983;28;20040;-86
2020/12/19 11:07:36;;;;;;;242.57;88.95;;;;;;;5.05;88.60;98625.38;4980327;28;20485;-84
2020/12/19 11:10:03;;;;;;;227.80;88.00;;;;;;;5.13;87.75;98618.13;4986671;28;20470;-85
2020/12/19 11:12:28;;;;;;;236.43;83.35;;;;;;;5.03;88.55;98613.94;4968297;28;20125;-85
2020/12/19 11:14:54;;;;;;;249.18;80.13;;;;;;;5.02;89.05;98615.72;4987459;28;20165;-85
2020/12/19 11:17:19;;;;;;;229.23;77.63;;;;;;;5.27;88.38;98614.25;4990084;28;20125;-78